createdAt,value
2018-11-21T00:00:13.989Z,100602.27
2018-11-21T00:02:42.809Z,100595.97
2018-11-21T00:05:11.632Z,100600.70
2018-11-21T00:07:40.535Z,100603.66
2018-11-21T00:10:10.752Z,100608.31
2018-11-21T00:12:39.965Z,100602.20
2018-11-21T00:15:10.118Z,100608.19
2018-11-21T00:17:39.202Z,100605.22
2018-11-21T00:20:09.861Z,100595.77
2018-11-21T00:22:38.476Z,100589.33
2018-11-21T00:25:07.084Z,100585.89
2018-11-21T00:27:35.676Z,100588.09
2018-11-21T00:30:04.470Z,100591.08
2018-11-21T00:32:33.573Z,100584.52
2018-11-21T00:35:02.091Z,100588.48
2018-11-21T00:37:30.589Z,100594.30
2018-11-21T00:39:59.066Z,100584.44
2018-11-21T00:42:27.518Z,100602.53
2018-11-21T00:44:56.182Z,100594.58
2018-11-21T00:47:25.179Z,100588.17
2018-11-21T00:49:54.001Z,100585.61
2018-11-21T00:52:23.089Z,100592.20
2018-11-21T00:54:52.059Z,100598.02
2018-11-21T00:57:21.318Z,100591.69
2018-11-21T00:59:49.826Z,100598.47
2018-11-21T01:02:18.622Z,100595.72
2018-11-21T01:04:47.464Z,100598.83
2018-11-21T01:07:16.100Z,100600.63
2018-11-21T01:09:44.586Z,100593.33
2018-11-21T01:12:13.097Z,100607.14
2018-11-21T01:14:41.845Z,100598.91
2018-11-21T01:17:10.328Z,100594.87
2018-11-21T01:19:39.013Z,100598.41
2018-11-21T01:22:07.484Z,100593.88
2018-11-21T01:24:35.988Z,100605.25
2018-11-21T01:27:04.477Z,100594.61
2018-11-21T01:29:33.275Z,100593.88
2018-11-21T01:32:01.767Z,100603.15
2018-11-21T01:34:30.639Z,100603.37
2018-11-21T01:36:59.508Z,100617.66
2018-11-21T01:39:28.334Z,100621.30
2018-11-21T01:41:56.804Z,100626.20
2018-11-21T01:44:25.293Z,100635.56
2018-11-21T01:46:53.760Z,100630.70
2018-11-21T01:49:22.656Z,100638.90
2018-11-21T01:51:51.786Z,100638.27
2018-11-21T01:54:20.686Z,100631.23
2018-11-21T01:56:49.232Z,100641.73
2018-11-21T01:59:17.724Z,100647.07
2018-11-21T02:01:46.394Z,100634.20
2018-11-21T02:04:15.181Z,100637.23
2018-11-21T02:06:44.009Z,100638.38
2018-11-21T02:09:13.238Z,100649.61
2018-11-21T02:11:42.098Z,100650.03
2018-11-21T02:14:11.426Z,100647.37
2018-11-21T02:16:39.967Z,100660.80
2018-11-21T02:19:08.566Z,100660.80
2018-11-21T02:21:37.686Z,100664.66
2018-11-21T02:24:06.215Z,100667.38
2018-11-21T02:26:34.733Z,100660.91
2018-11-21T02:29:03.207Z,100660.44
2018-11-21T02:31:32.080Z,100662.78
2018-11-21T02:34:01.064Z,100668.81
2018-11-21T02:36:29.727Z,100664.41
2018-11-21T02:38:58.409Z,100665.08
2018-11-21T02:41:26.901Z,100667.83
2018-11-21T02:43:55.595Z,100668.97
2018-11-21T02:46:24.208Z,100659.50
2018-11-21T02:48:52.660Z,100672.66
2018-11-21T02:51:21.877Z,100668.27
2018-11-21T02:53:50.623Z,100671.27
2018-11-21T02:56:19.855Z,100670.33
2018-11-21T02:58:48.311Z,100674.59
2018-11-21T03:01:16.856Z,100678.65
2018-11-21T03:03:45.788Z,100682.44
2018-11-21T03:06:14.275Z,100674.90
2018-11-21T03:08:43.156Z,100680.98
2018-11-21T03:11:11.598Z,100678.86
2018-11-21T03:13:40.224Z,100671.03
2018-11-21T03:16:08.694Z,100673.60
2018-11-21T03:18:37.194Z,100679.42
2018-11-21T03:21:05.683Z,100686.19
2018-11-21T03:23:34.110Z,100693.44
2018-11-21T03:26:02.675Z,100690.98
2018-11-21T03:28:31.624Z,100695.55
2018-11-21T03:31:00.425Z,100688.21
2018-11-21T03:33:28.860Z,100682.66
2018-11-21T03:35:57.396Z,100690.70
2018-11-21T03:38:25.949Z,100692.98
2018-11-21T03:40:55.105Z,100690.72
2018-11-21T03:43:24.334Z,100699.52
2018-11-21T03:45:52.787Z,100696.31
2018-11-21T03:48:21.712Z,100696.27
2018-11-21T03:50:50.572Z,100714.70
2018-11-21T03:53:19.485Z,100716.38
2018-11-21T03:55:48.153Z,100715.55
2018-11-21T03:58:16.613Z,100725.97
2018-11-21T04:00:45.384Z,100726.11
2018-11-21T04:03:13.996Z,100725.16
2018-11-21T04:05:42.460Z,100712.20
2018-11-21T04:08:11.333Z,100693.76
2018-11-21T04:10:39.892Z,100708.84
2018-11-21T04:13:08.683Z,100705.63
2018-11-21T04:15:37.471Z,100708.79
2018-11-21T04:18:06.393Z,100717.83
2018-11-21T04:20:35.228Z,100734.95
2018-11-21T04:23:05.016Z,100738.63
2018-11-21T04:25:33.471Z,100745.75
2018-11-21T04:28:02.060Z,100755.84
2018-11-21T04:30:30.518Z,100759.20
2018-11-21T04:32:59.049Z,100762.78
2018-11-21T04:35:27.917Z,100773.39
2018-11-21T04:37:56.821Z,100774.71
2018-11-21T04:40:25.385Z,100782.76
2018-11-21T04:42:54.714Z,100773.64
2018-11-21T04:45:23.173Z,100784.47
2018-11-21T04:47:51.632Z,100781.08
2018-11-21T04:50:20.153Z,100788.94
2018-11-21T04:52:48.972Z,100798.58
2018-11-21T04:55:17.685Z,100809.14
2018-11-21T04:57:46.625Z,100814.64
2018-11-21T05:00:15.197Z,100818.10
2018-11-21T05:02:43.707Z,100807.81
2018-11-21T05:05:12.520Z,100815.39
2018-11-21T05:07:41.305Z,100819.95
2018-11-21T05:10:09.809Z,100823.41
2018-11-21T05:12:38.818Z,100830.42
2018-11-21T05:15:08.887Z,100834.50
2018-11-21T05:17:37.385Z,100828.35
2018-11-21T05:20:06.192Z,100828.89
2018-11-21T05:22:34.788Z,100835.80
2018-11-21T05:25:03.409Z,100840.89
2018-11-21T05:27:31.991Z,100839.93
2018-11-21T05:30:00.441Z,100846.87
2018-11-21T05:32:29.078Z,100842.56
2018-11-21T05:34:57.646Z,100841.88
2018-11-21T05:37:26.090Z,100837.84
2018-11-21T05:39:54.553Z,100842.83
2018-11-21T05:42:23.103Z,100847.34
2018-11-21T05:44:51.629Z,100852.53
2018-11-21T05:47:20.159Z,100850.24
2018-11-21T05:49:49.419Z,100853.39
2018-11-21T05:52:17.423Z,100864.60
2018-11-21T05:54:45.945Z,100867.81
2018-11-21T05:57:15.725Z,100860.09
2018-11-21T05:59:44.236Z,100864.30
2018-11-21T06:02:12.676Z,100868.61
2018-11-21T06:04:41.423Z,100858.76
2018-11-21T06:07:10.235Z,100853.57
2018-11-21T06:09:38.764Z,100842.11
2018-11-21T06:12:07.317Z,100862.67
2018-11-21T06:14:35.839Z,100862.67
2018-11-21T06:17:04.283Z,100868.88
2018-11-21T06:19:32.843Z,100865.17
2018-11-21T06:22:01.378Z,100880.34
2018-11-21T06:24:29.832Z,100891.64
2018-11-21T06:27:00.033Z,100890.77
2018-11-21T06:29:28.627Z,100893.01
2018-11-21T06:31:57.197Z,100892.95
2018-11-21T06:34:29.116Z,100899.20
2018-11-21T06:36:54.537Z,100899.59
2018-11-21T06:39:23.253Z,100907.58
2018-11-21T06:41:51.709Z,100905.24
2018-11-21T06:44:20.163Z,100903.20
2018-11-21T06:46:49.091Z,100907.11
2018-11-21T06:49:17.538Z,100912.63
2018-11-21T06:51:46.100Z,100908.72
2018-11-21T06:54:14.995Z,100913.70
2018-11-21T06:56:44.603Z,100909.45
2018-11-21T06:59:12.107Z,100906.48
2018-11-21T07:01:40.635Z,100913.50
2018-11-21T07:04:09.153Z,100920.88
2018-11-21T07:06:37.621Z,100922.48
2018-11-21T07:09:10.513Z,100930.44
2018-11-21T07:11:40.325Z,100940.50
2018-11-21T07:14:09.167Z,100945.34
2018-11-21T07:16:38.734Z,100940.87
2018-11-21T07:19:07.231Z,100948.55
2018-11-21T07:21:36.123Z,100959.27
2018-11-21T07:24:04.963Z,100960.44
2018-11-21T07:26:33.835Z,100966.98
2018-11-21T07:29:02.393Z,100969.11
2018-11-21T07:31:30.922Z,100973.46
2018-11-21T07:33:59.494Z,100974.77
2018-11-21T07:36:28.092Z,100977.97
2018-11-21T07:38:56.552Z,100971.80
2018-11-21T07:41:25.033Z,100975.34
2018-11-21T07:43:54.479Z,100978.41
2018-11-21T07:46:22.954Z,100974.97
2018-11-21T07:48:51.425Z,100981.16
2018-11-21T07:51:20.214Z,100979.87
2018-11-21T07:53:48.747Z,100976.88
2018-11-21T07:56:54.645Z,100990.10
2018-11-21T07:59:23.298Z,100991.92
2018-11-21T08:02:10.791Z,100980.16
2018-11-21T08:04:52.401Z,100988.81
2018-11-21T08:07:51.743Z,100993.22
2018-11-21T08:10:48.614Z,100997.84
2018-11-21T08:13:35.052Z,101003.48
2018-11-21T08:16:22.590Z,101001.52
2018-11-21T08:19:10.083Z,101002.59
2018-11-21T08:22:12.729Z,101008.55
2018-11-21T08:25:00.656Z,101013.58
2018-11-21T08:27:46.542Z,101021.75
2018-11-21T08:30:15.068Z,101014.87
2018-11-21T08:32:44.431Z,101012.39
2018-11-21T08:35:12.075Z,101019.42
2018-11-21T08:37:40.868Z,101026.20
2018-11-21T08:40:09.380Z,101017.41
2018-11-21T08:42:37.823Z,101015.27
2018-11-21T08:45:06.924Z,101026.77
2018-11-21T08:47:35.509Z,101034.56
2018-11-21T08:50:04.415Z,101028.91
2018-11-21T08:52:33.118Z,101026.44
2018-11-21T08:55:01.585Z,101027.07
2018-11-21T08:57:30.030Z,101028.64
2018-11-21T08:59:58.554Z,101033.90
2018-11-21T09:02:27.206Z,101038.13
2018-11-21T09:04:55.788Z,101046.17
2018-11-21T09:07:24.753Z,101046.04
2018-11-21T09:09:53.219Z,101046.41
2018-11-21T09:12:21.843Z,101047.88
2018-11-21T09:14:50.336Z,101051.78
2018-11-21T09:17:18.866Z,101069.22
2018-11-21T09:19:47.287Z,101070.22
2018-11-21T09:22:15.958Z,101066.03
2018-11-21T09:24:44.538Z,101072.14
2018-11-21T09:27:13.047Z,101078.67
2018-11-21T09:29:41.534Z,101074.76
2018-11-21T09:32:09.981Z,101081.19
2018-11-21T09:34:38.522Z,101075.75
2018-11-21T09:37:06.950Z,101074.75
2018-11-21T09:39:35.405Z,101072.92
2018-11-21T09:42:03.915Z,101077.73
2018-11-21T09:44:33.301Z,101087.43
2018-11-21T09:47:01.819Z,101087.85
2018-11-21T09:49:30.685Z,101089.67
2018-11-21T09:51:59.204Z,101085.61
2018-11-21T09:54:28.045Z,101090.31
2018-11-21T09:56:57.181Z,101100.11
2018-11-21T09:59:25.626Z,101100.53
2018-11-21T10:02:30.085Z,101098.45
2018-11-21T10:04:58.882Z,101099.99
2018-11-21T10:07:27.328Z,101102.28
2018-11-21T10:09:56.148Z,101101.21
2018-11-21T10:12:24.932Z,101105.27
2018-11-21T10:14:53.550Z,101091.00
2018-11-21T10:17:22.009Z,101088.17
2018-11-21T10:19:50.809Z,101102.14
2018-11-21T10:22:19.332Z,101103.07
2018-11-21T10:24:48.157Z,101101.58
2018-11-21T10:27:17.046Z,101100.12
2018-11-21T10:29:45.505Z,101107.97
2018-11-21T10:32:13.977Z,101106.95
2018-11-21T10:34:42.551Z,101104.42
2018-11-21T10:37:11.046Z,101099.06
2018-11-21T10:39:39.542Z,101106.08
2018-11-21T10:42:08.057Z,101108.02
2018-11-21T10:44:36.509Z,101106.02
2018-11-21T10:47:05.471Z,101113.44
2018-11-21T10:49:33.944Z,101120.72
2018-11-21T10:52:02.395Z,101113.65
2018-11-21T10:54:30.859Z,101112.17
2018-11-21T10:56:59.667Z,101107.17
2018-11-21T10:59:28.184Z,101113.43
2018-11-21T11:02:13.879Z,101112.41
2018-11-21T11:04:47.179Z,101117.88
2018-11-21T11:07:36.171Z,101129.73
2018-11-21T11:10:19.437Z,101135.00
2018-11-21T11:13:18.586Z,101133.31
2018-11-21T11:16:04.556Z,101126.59
2018-11-21T11:19:07.069Z,101123.55
2018-11-21T11:21:53.187Z,101118.66
2018-11-21T11:24:55.677Z,101119.84
2018-11-21T11:27:41.711Z,101117.09
2018-11-21T11:30:19.483Z,101117.30
2018-11-21T11:33:05.439Z,101113.23
2018-11-21T11:35:51.816Z,101120.25
2018-11-21T11:38:47.982Z,101115.61
2018-11-21T11:41:50.366Z,101118.41
2018-11-21T11:44:36.394Z,101129.64
2018-11-21T11:47:41.880Z,101146.91
2018-11-21T11:50:29.454Z,101145.66
2018-11-21T11:53:29.017Z,101145.47
2018-11-21T11:56:15.482Z,101145.31
2018-11-21T11:59:02.065Z,101142.91
2018-11-21T12:01:49.815Z,101145.45
2018-11-21T12:04:32.608Z,101145.73
2018-11-21T12:07:20.179Z,101147.94
2018-11-21T12:10:16.476Z,101147.59
2018-11-21T12:13:03.039Z,101144.81
2018-11-21T12:15:48.825Z,101146.95
2018-11-21T12:18:39.275Z,101151.22
2018-11-21T12:21:29.547Z,101149.13
2018-11-21T12:24:10.295Z,101145.87
2018-11-21T12:26:48.369Z,101158.62
2018-11-21T12:29:36.508Z,101152.36
2018-11-21T12:32:33.448Z,101147.05
2018-11-21T12:35:16.592Z,101150.54
2018-11-21T12:38:18.944Z,101151.79
2018-11-21T12:41:00.320Z,101146.50
2018-11-21T12:43:46.455Z,101146.06
2018-11-21T12:46:42.642Z,101147.03
2018-11-21T12:49:30.657Z,101139.05
2018-11-21T12:52:16.701Z,101140.30
2018-11-21T12:55:22.525Z,101131.08
2018-11-21T12:58:13.110Z,101134.45
2018-11-21T13:00:58.286Z,101132.67
2018-11-21T13:03:44.012Z,101129.64
2018-11-21T13:06:31.670Z,101130.80
2018-11-21T13:09:17.987Z,101136.29
2018-11-21T13:12:04.102Z,101139.81
2018-11-21T13:14:43.593Z,101155.23
2018-11-21T13:17:30.130Z,101161.02
2018-11-21T13:20:08.056Z,101158.13
2018-11-21T13:23:01.652Z,101159.37
2018-11-21T13:25:51.774Z,101159.36
2018-11-21T13:28:41.172Z,101157.69
2018-11-21T13:31:40.829Z,101157.71
2018-11-21T13:34:32.171Z,101164.30
2018-11-21T13:37:18.343Z,101157.00
2018-11-21T13:40:07.216Z,101160.31
2018-11-21T13:42:54.778Z,101158.20
2018-11-21T13:46:00.137Z,101161.08
2018-11-21T13:48:39.856Z,101163.36
2018-11-21T13:51:25.920Z,101174.26
2018-11-21T13:54:19.441Z,101171.48
2018-11-21T13:56:48.917Z,101166.53
2018-11-21T13:59:17.442Z,101164.94
2018-11-21T14:01:45.947Z,101157.84
2018-11-21T14:04:14.491Z,101161.66
2018-11-21T14:06:42.936Z,101163.91
2018-11-21T14:09:12.684Z,101167.67
2018-11-21T14:11:41.623Z,101166.27
2018-11-21T14:14:10.433Z,101167.81
2018-11-21T14:16:39.205Z,101168.66
2018-11-21T14:19:07.898Z,101174.63
2018-11-21T14:21:36.659Z,101174.34
2018-11-21T14:24:05.266Z,101180.20
2018-11-21T14:26:34.113Z,101179.54
2018-11-21T14:29:02.567Z,101186.36
2018-11-21T14:31:31.168Z,101183.78
2018-11-21T14:33:59.984Z,101188.17
2018-11-21T14:36:28.651Z,101187.61
2018-11-21T14:38:57.152Z,101192.05
2018-11-21T14:41:26.075Z,101178.08
2018-11-21T14:43:54.607Z,101180.47
2018-11-21T14:46:23.074Z,101180.34
2018-11-21T14:48:51.720Z,101186.93
2018-11-21T14:51:20.808Z,101178.72
2018-11-21T14:53:49.324Z,101188.70
2018-11-21T14:56:17.814Z,101197.08
2018-11-21T14:58:46.295Z,101192.63
2018-11-21T15:01:15.148Z,101188.70
2018-11-21T15:03:43.633Z,101190.34
2018-11-21T15:06:12.522Z,101211.33
2018-11-21T15:08:40.971Z,101212.83
2018-11-21T15:11:09.467Z,101216.22
2018-11-21T15:13:38.323Z,101215.81
2018-11-21T15:16:06.870Z,101217.69
2018-11-21T15:18:35.423Z,101221.54
2018-11-21T15:21:04.096Z,101220.77
2018-11-21T15:23:32.628Z,101214.88
2018-11-21T15:26:01.678Z,101213.30
2018-11-21T15:28:30.539Z,101218.80
2018-11-21T15:30:59.259Z,101215.78
2018-11-21T15:33:28.407Z,101219.59
2018-11-21T15:35:56.890Z,101215.52
2018-11-21T15:38:25.733Z,101219.55
2018-11-21T15:40:54.289Z,101220.30
2018-11-21T15:43:22.736Z,101220.20
2018-11-21T15:45:51.305Z,101218.83
2018-11-21T15:48:19.869Z,101217.66
2018-11-21T15:50:48.769Z,101216.66
2018-11-21T15:53:17.279Z,101219.70
2018-11-21T15:55:45.915Z,101224.55
2018-11-21T15:58:14.835Z,101238.92
2018-11-21T16:00:43.345Z,101240.16
2018-11-21T16:03:12.307Z,101233.63
2018-11-21T16:05:40.885Z,101240.86
2018-11-21T16:08:09.505Z,101232.55
2018-11-21T16:10:42.902Z,101232.97
2018-11-21T16:13:11.956Z,101232.50
2018-11-21T16:15:45.684Z,101233.88
2018-11-21T16:18:14.680Z,101239.28
2018-11-21T16:20:43.175Z,101244.06
2018-11-21T16:23:13.303Z,101248.35
2018-11-21T16:25:42.214Z,101247.30
2018-11-21T16:28:10.725Z,101247.06
2018-11-21T16:30:39.528Z,101252.66
2018-11-21T16:33:08.003Z,101257.50
2018-11-21T16:35:36.549Z,101261.20
2018-11-21T16:38:05.180Z,101251.95
2018-11-21T16:40:34.624Z,101248.66
2018-11-21T16:43:03.126Z,101251.16
2018-11-21T16:45:33.484Z,101250.56
2018-11-21T16:48:01.974Z,101255.31
2018-11-21T16:50:30.573Z,101258.05
2018-11-21T16:52:59.399Z,101261.03
2018-11-21T16:55:28.387Z,101277.03
2018-11-21T16:57:57.737Z,101281.75
2018-11-21T17:00:27.674Z,101285.31
2018-11-21T17:02:56.688Z,101284.48
2018-11-21T17:05:26.210Z,101281.29
2018-11-21T17:07:55.181Z,101295.16
2018-11-21T17:10:25.493Z,101289.82
2018-11-21T17:12:54.166Z,101286.96
2018-11-21T17:15:27.823Z,101293.34
2018-11-21T17:17:56.949Z,101301.91
2018-11-21T17:20:30.560Z,101305.55
2018-11-21T17:23:00.263Z,101311.02
2018-11-21T17:25:30.691Z,101312.08
2018-11-21T17:27:59.259Z,101316.11
2018-11-21T17:30:28.063Z,101323.68
2018-11-21T17:32:56.637Z,101321.67
2018-11-21T17:35:25.443Z,101312.19
2018-11-21T17:37:54.947Z,101322.59
2018-11-21T17:40:29.300Z,101320.84
2018-11-21T17:42:58.491Z,101327.33
2018-11-21T17:45:27.005Z,101323.65
2018-11-21T17:47:55.522Z,101325.70
2018-11-21T17:50:25.201Z,101321.64
2018-11-21T17:52:55.619Z,101327.93
2018-11-21T17:55:25.929Z,101326.75
2018-11-21T17:57:54.408Z,101326.28
2018-11-21T18:00:24.446Z,101337.30
2018-11-21T18:02:52.904Z,101331.63
2018-11-21T18:05:23.260Z,101331.16
2018-11-21T18:07:51.769Z,101329.73
2018-11-21T18:10:22.214Z,101329.86
2018-11-21T18:12:50.735Z,101325.58
2018-11-21T18:15:19.837Z,101322.14
2018-11-21T18:17:49.155Z,101327.72
2018-11-21T18:20:18.463Z,101324.16
2018-11-21T18:22:47.857Z,101322.38
2018-11-21T18:25:17.976Z,101327.02
2018-11-21T18:27:46.517Z,101327.70
2018-11-21T18:30:17.040Z,101332.79
2018-11-21T18:32:47.048Z,101337.41
2018-11-21T18:35:17.540Z,101337.66
2018-11-21T18:37:46.881Z,101331.73
2018-11-21T18:40:22.543Z,101338.61
2018-11-21T18:42:51.645Z,101341.34
2018-11-21T18:45:22.922Z,101343.25
2018-11-21T18:47:52.317Z,101342.77
2018-11-21T18:50:21.451Z,101341.91
2018-11-21T18:52:51.937Z,101342.28
2018-11-21T18:55:22.595Z,101345.13
2018-11-21T18:58:18.224Z,101345.69
2018-11-21T19:00:51.792Z,101344.59
